sensor_id;sensor_type;location;lat;lon;timestamp;pressure;altitude;pressure_sealevel;temperature;humidity
51083;BME280;37131;42.694;23.350;2022-12-29T00:01:46;96455.09;;;4.04;92.99
51083;BME280;37131;42.694;23.350;2022-12-29T00:04:13;96453.63;;;3.76;94.86
51083;BME280;37131;42.694;23.350;2022-12-29T00:06:39;96450.59;;;3.80;95.04
51083;BME280;37131;42.694;23.350;2022-12-29T00:09:05;96439.38;;;3.63;96.34
51083;BME280;37131;42.694;23.350;2022-12-29T00:11:30;96460.09;;;3.80;95.71
51083;BME280;37131;42.694;23.350;2022-12-29T00:13:55;96454.13;;;3.53;97.19
51083;BME280;37131;42.694;23.350;2022-12-29T00:16:42;96458.28;;;3.72;95.97
51083;BME280;37131;42.694;23.350;2022-12-29T00:19:08;96455.66;;;3.90;95.63
51083;BME280;37131;42.694;23.350;2022-12-29T00:21:53;96451.75;;;4.12;93.84
51083;BME280;37131;42.694;23.350;2022-12-29T00:24:37;96461.09;;;4.48;91.19
51083;BME280;37131;42.694;23.350;2022-12-29T00:27:21;96457.63;;;3.96;94.20
51083;BME280;37131;42.694;23.350;2022-12-29T00:30:13;96452.03;;;4.44;92.58
51083;BME280;37131;42.694;23.350;2022-12-29T00:32:57;96451.25;;;4.51;91.15
51083;BME280;37131;42.694;23.350;2022-12-29T00:35:46;96471.16;;;4.25;92.70
51083;BME280;37131;42.694;23.350;2022-12-29T00:38:15;96461.13;;;4.56;91.60
51083;BME280;37131;42.694;23.350;2022-12-29T00:40:59;96463.88;;;4.20;92.48
51083;BME280;37131;42.694;23.350;2022-12-29T00:43:43;96465.13;;;3.90;94.28
51083;BME280;37131;42.694;23.350;2022-12-29T00:46:27;96454.78;;;3.81;95.19
51083;BME280;37131;42.694;23.350;2022-12-29T00:48:52;96461.22;;;3.77;96.24
51083;BME280;37131;42.694;23.350;2022-12-29T00:51:36;96469.66;;;4.14;94.78
51083;BME280;37131;42.694;23.350;2022-12-29T00:54:02;96473.50;;;4.10;94.24
51083;BME280;37131;42.694;23.350;2022-12-29T00:56:27;96476.84;;;3.76;95.77
51083;BME280;37131;42.694;23.350;2022-12-29T00:58:52;96470.84;;;4.01;94.98
51083;BME280;37131;42.694;23.350;2022-12-29T01:01:18;96478.56;;;4.19;93.94
51083;BME280;37131;42.694;23.350;2022-12-29T01:03:43;96473.72;;;4.16;94.03
51083;BME280;37131;42.694;23.350;2022-12-29T01:06:11;96481.66;;;3.71;95.71
51083;BME280;37131;42.694;23.350;2022-12-29T01:08:36;96475.88;;;3.32;98.44
51083;BME280;37131;42.694;23.350;2022-12-29T01:11:06;96474.31;;;3.22;100.00
51083;BME280;37131;42.694;23.350;2022-12-29T01:13:32;96471.97;;;3.28;99.90
51083;BME280;37131;42.694;23.350;2022-12-29T01:15:57;96470.91;;;3.21;100.00
51083;BME280;37131;42.694;23.350;2022-12-29T01:18:24;96468.34;;;3.39;99.81
51083;BME280;37131;42.694;23.350;2022-12-29T01:20:50;96464.97;;;3.39;99.80
51083;BME280;37131;42.694;23.350;2022-12-29T01:23:16;96465.88;;;3.74;97.68
51083;BME280;37131;42.694;23.350;2022-12-29T01:25:41;96463.69;;;3.87;96.73
51083;BME280;37131;42.694;23.350;2022-12-29T01:28:07;96462.16;;;3.50;98.16
51083;BME280;37131;42.694;23.350;2022-12-29T01:30:35;96465.78;;;3.65;98.54
51083;BME280;37131;42.694;23.350;2022-12-29T01:33:01;96458.53;;;3.87;97.86
51083;BME280;37131;42.694;23.350;2022-12-29T01:35:26;96450.41;;;3.74;96.66
51083;BME280;37131;42.694;23.350;2022-12-29T01:37:52;96451.44;;;3.89;96.41
51083;BME280;37131;42.694;23.350;2022-12-29T01:40:17;96441.81;;;3.73;96.51
51083;BME280;37131;42.694;23.350;2022-12-29T01:42:43;96440.16;;;3.64;97.85
51083;BME280;37131;42.694;23.350;2022-12-29T01:45:13;96448.75;;;3.73;97.53
51083;BME280;37131;42.694;23.350;2022-12-29T01:50:20;96437.59;;;4.25;94.42
51083;BME280;37131;42.694;23.350;2022-12-29T01:52:58;96429.13;;;4.06;93.81
51083;BME280;37131;42.694;23.350;2022-12-29T01:55:30;96422.00;;;4.43;91.13
51083;BME280;37131;42.694;23.350;2022-12-29T01:57:59;96428.19;;;4.58;89.67
51083;BME280;37131;42.694;23.350;2022-12-29T02:00:26;96432.81;;;4.03;92.01
51083;BME280;37131;42.694;23.350;2022-12-29T02:02:53;96427.38;;;3.80;94.88
51083;BME280;37131;42.694;23.350;2022-12-29T02:05:28;96421.66;;;3.95;94.70
51083;BME280;37131;42.694;23.350;2022-12-29T02:07:59;96425.91;;;4.47;90.82
51083;BME280;37131;42.694;23.350;2022-12-29T02:10:26;96411.34;;;4.37;90.66
51083;BME280;37131;42.694;23.350;2022-12-29T02:12:53;96420.41;;;4.42;90.04
51083;BME280;37131;42.694;23.350;2022-12-29T02:15:24;96412.88;;;4.14;91.16
51083;BME280;37131;42.694;23.350;2022-12-29T02:18:07;96423.78;;;4.42;91.28
51083;BME280;37131;42.694;23.350;2022-12-29T02:20:47;96416.56;;;4.11;91.81
51083;BME280;37131;42.694;23.350;2022-12-29T02:28:39;96419.59;;;4.07;92.69
51083;BME280;37131;42.694;23.350;2022-12-29T02:31:36;96423.84;;;3.81;93.56
51083;BME280;37131;42.694;23.350;2022-12-29T02:37:14;96414.09;;;4.01;92.46
51083;BME280;37131;42.694;23.350;2022-12-29T02:42:48;96423.59;;;3.93;92.07
51083;BME280;37131;42.694;23.350;2022-12-29T02:45:39;96424.63;;;3.82;93.67
51083;BME280;37131;42.694;23.350;2022-12-29T02:51:03;96412.50;;;4.09;92.82
51083;BME280;37131;42.694;23.350;2022-12-29T02:53:32;96410.16;;;4.24;90.75
51083;BME280;37131;42.694;23.350;2022-12-29T02:56:17;96403.53;;;4.21;89.18
51083;BME280;37131;42.694;23.350;2022-12-29T02:58:42;96410.25;;;4.06;91.05
51083;BME280;37131;42.694;23.350;2022-12-29T03:01:38;96399.03;;;4.23;90.77
51083;BME280;37131;42.694;23.350;2022-12-29T03:13:04;96409.88;;;4.35;89.50
51083;BME280;37131;42.694;23.350;2022-12-29T03:16:03;96404.69;;;4.27;89.73
51083;BME280;37131;42.694;23.350;2022-12-29T03:21:37;96398.34;;;3.78;92.58
51083;BME280;37131;42.694;23.350;2022-12-29T03:24:47;96382.88;;;3.52;93.35
51083;BME280;37131;42.694;23.350;2022-12-29T03:27:18;96406.34;;;3.23;96.49
51083;BME280;37131;42.694;23.350;2022-12-29T03:29:50;96387.53;;;3.30;96.04
51083;BME280;37131;42.694;23.350;2022-12-29T03:32:26;96416.19;;;3.27;96.47
51083;BME280;37131;42.694;23.350;2022-12-29T03:34:53;96413.13;;;3.24;94.69
51083;BME280;37131;42.694;23.350;2022-12-29T03:37:27;96415.84;;;3.22;95.72
51083;BME280;37131;42.694;23.350;2022-12-29T03:39:54;96405.53;;;3.22;94.84
51083;BME280;37131;42.694;23.350;2022-12-29T03:42:23;96404.44;;;3.07;96.41
51083;BME280;37131;42.694;23.350;2022-12-29T03:44:54;96414.38;;;3.02;97.25
51083;BME280;37131;42.694;23.350;2022-12-29T03:47:22;96417.13;;;3.00;98.03
51083;BME280;37131;42.694;23.350;2022-12-29T03:49:48;96418.66;;;3.11;98.29
51083;BME280;37131;42.694;23.350;2022-12-29T03:52:14;96420.63;;;3.17;97.43
51083;BME280;37131;42.694;23.350;2022-12-29T03:54:40;96426.38;;;2.93;98.81
51083;BME280;37131;42.694;23.350;2022-12-29T03:57:06;96428.00;;;2.94;99.05
51083;BME280;37131;42.694;23.350;2022-12-29T03:59:31;96430.59;;;2.94;99.98
51083;BME280;37131;42.694;23.350;2022-12-29T04:01:56;96408.31;;;3.29;96.46
51083;BME280;37131;42.694;23.350;2022-12-29T04:04:22;96429.66;;;3.39;96.36
51083;BME280;37131;42.694;23.350;2022-12-29T04:06:47;96426.69;;;3.52;95.41
51083;BME280;37131;42.694;23.350;2022-12-29T04:09:13;96419.50;;;3.38;95.64
51083;BME280;37131;42.694;23.350;2022-12-29T04:11:38;96424.19;;;3.42;95.68
51083;BME280;37131;42.694;23.350;2022-12-29T04:14:04;96422.03;;;3.29;95.87
51083;BME280;37131;42.694;23.350;2022-12-29T04:16:29;96427.03;;;3.31;96.11
51083;BME280;37131;42.694;23.350;2022-12-29T04:18:54;96435.50;;;3.41;95.92
51083;BME280;37131;42.694;23.350;2022-12-29T04:21:20;96429.81;;;3.38;95.86
51083;BME280;37131;42.694;23.350;2022-12-29T04:23:45;96425.03;;;3.43;96.11
51083;BME280;37131;42.694;23.350;2022-12-29T04:26:11;96437.03;;;3.34;96.49
51083;BME280;37131;42.694;23.350;2022-12-29T04:28:36;96433.13;;;3.30;96.63
51083;BME280;37131;42.694;23.350;2022-12-29T04:31:03;96432.69;;;3.34;96.46
51083;BME280;37131;42.694;23.350;2022-12-29T04:33:29;96435.88;;;3.28;97.04
51083;BME280;37131;42.694;23.350;2022-12-29T04:35:55;96436.09;;;3.61;95.49
51083;BME280;37131;42.694;23.350;2022-12-29T04:38:21;96440.50;;;3.43;95.85
51083;BME280;37131;42.694;23.350;2022-12-29T04:40:48;96434.69;;;3.67;94.43
51083;BME280;37131;42.694;23.350;2022-12-29T04:43:14;96439.09;;;3.75;93.06
51083;BME280;37131;42.694;23.350;2022-12-29T04:45:46;96436.03;;;3.71;94.17
51083;BME280;37131;42.694;23.350;2022-12-29T04:48:12;96445.16;;;3.65;92.81
51083;BME280;37131;42.694;23.350;2022-12-29T04:50:38;96448.50;;;3.58;93.29
51083;BME280;37131;42.694;23.350;2022-12-29T04:53:03;96451.19;;;3.74;92.45
51083;BME280;37131;42.694;23.350;2022-12-29T04:55:28;96448.81;;;3.81;91.41
51083;BME280;37131;42.694;23.350;2022-12-29T04:57:54;96458.22;;;3.64;91.86
51083;BME280;37131;42.694;23.350;2022-12-29T05:00:19;96460.03;;;3.72;91.98
51083;BME280;37131;42.694;23.350;2022-12-29T05:02:45;96458.50;;;3.61;92.00
51083;BME280;37131;42.694;23.350;2022-12-29T05:05:11;96445.94;;;3.84;89.78
51083;BME280;37131;42.694;23.350;2022-12-29T05:07:36;96455.75;;;3.80;90.10
51083;BME280;37131;42.694;23.350;2022-12-29T05:10:02;96453.94;;;3.73;90.05
51083;BME280;37131;42.694;23.350;2022-12-29T05:12:31;96460.81;;;3.90;90.08
51083;BME280;37131;42.694;23.350;2022-12-29T05:14:57;96459.59;;;4.02;88.79
51083;BME280;37131;42.694;23.350;2022-12-29T05:17:23;96452.31;;;3.98;89.32
51083;BME280;37131;42.694;23.350;2022-12-29T05:19:48;96452.38;;;4.14;88.57
51083;BME280;37131;42.694;23.350;2022-12-29T05:22:13;96456.06;;;4.12;88.61
51083;BME280;37131;42.694;23.350;2022-12-29T05:24:39;96450.34;;;4.26;87.14
51083;BME280;37131;42.694;23.350;2022-12-29T05:27:05;96450.56;;;4.33;87.42
51083;BME280;37131;42.694;23.350;2022-12-29T05:29:30;96441.41;;;4.12;87.37
51083;BME280;37131;42.694;23.350;2022-12-29T05:31:56;96452.84;;;4.10;88.19
51083;BME280;37131;42.694;23.350;2022-12-29T05:34:21;96454.16;;;4.14;88.13
51083;BME280;37131;42.694;23.350;2022-12-29T05:36:46;96456.44;;;3.91;88.96
51083;BME280;37131;42.694;23.350;2022-12-29T05:39:12;96459.97;;;4.16;87.79
51083;BME280;37131;42.694;23.350;2022-12-29T05:41:37;96470.50;;;3.70;90.29
51083;BME280;37131;42.694;23.350;2022-12-29T05:44:03;96461.56;;;3.82;90.42
51083;BME280;37131;42.694;23.350;2022-12-29T05:46:28;96462.16;;;4.02;89.67
51083;BME280;37131;42.694;23.350;2022-12-29T05:48:54;96451.09;;;3.84;90.08
51083;BME280;37131;42.694;23.350;2022-12-29T05:51:19;96456.34;;;3.74;91.10
51083;BME280;37131;42.694;23.350;2022-12-29T05:53:45;96460.13;;;3.88;91.07
51083;BME280;37131;42.694;23.350;2022-12-29T05:56:10;96461.34;;;3.76;91.49
51083;BME280;37131;42.694;23.350;2022-12-29T05:58:35;96475.06;;;4.02;90.68
51083;BME280;37131;42.694;23.350;2022-12-29T06:01:01;96475.88;;;3.77;92.03
51083;BME280;37131;42.694;23.350;2022-12-29T06:03:26;96480.72;;;3.36;93.29
51083;BME280;37131;42.694;23.350;2022-12-29T06:05:52;96468.03;;;3.24;93.47
51083;BME280;37131;42.694;23.350;2022-12-29T06:08:17;96482.19;;;3.02;95.36
51083;BME280;37131;42.694;23.350;2022-12-29T06:10:43;96484.25;;;3.16;96.63
51083;BME280;37131;42.694;23.350;2022-12-29T06:13:08;96474.75;;;3.17;95.30
51083;BME280;37131;42.694;23.350;2022-12-29T06:15:34;96493.31;;;3.39;94.09
51083;BME280;37131;42.694;23.350;2022-12-29T06:18:00;96473.00;;;3.18;95.61
51083;BME280;37131;42.694;23.350;2022-12-29T06:20:25;96479.25;;;3.33;95.86
51083;BME280;37131;42.694;23.350;2022-12-29T06:22:51;96483.34;;;3.44;96.23
51083;BME280;37131;42.694;23.350;2022-12-29T06:25:16;96476.50;;;3.71;93.27
51083;BME280;37131;42.694;23.350;2022-12-29T06:27:42;96477.56;;;3.86;93.15
51083;BME280;37131;42.694;23.350;2022-12-29T06:30:09;96483.97;;;3.82;93.17
51083;BME280;37131;42.694;23.350;2022-12-29T06:32:35;96480.13;;;3.86;93.87
51083;BME280;37131;42.694;23.350;2022-12-29T06:35:01;96489.59;;;3.77;93.71
51083;BME280;37131;42.694;23.350;2022-12-29T06:37:27;96485.63;;;3.47;93.80
51083;BME280;37131;42.694;23.350;2022-12-29T06:39:52;96485.63;;;3.47;94.41
51083;BME280;37131;42.694;23.350;2022-12-29T06:42:18;96486.72;;;3.62;94.15
51083;BME280;37131;42.694;23.350;2022-12-29T06:44:43;96490.38;;;3.96;92.58
51083;BME280;37131;42.694;23.350;2022-12-29T06:47:08;96490.50;;;3.94;93.00
51083;BME280;37131;42.694;23.350;2022-12-29T06:49:34;96483.69;;;3.67;93.20
51083;BME280;37131;42.694;23.350;2022-12-29T06:51:59;96491.38;;;3.77;92.63
51083;BME280;37131;42.694;23.350;2022-12-29T06:54:26;96485.22;;;3.78;93.61
51083;BME280;37131;42.694;23.350;2022-12-29T06:56:51;96452.06;;;3.39;94.34
51083;BME280;37131;42.694;23.350;2022-12-29T06:59:17;96485.09;;;3.61;93.00
51083;BME280;37131;42.694;23.350;2022-12-29T07:01:43;96482.78;;;3.76;93.04
51083;BME280;37131;42.694;23.350;2022-12-29T07:04:08;96493.28;;;4.01;92.57
51083;BME280;37131;42.694;23.350;2022-12-29T07:06:33;96502.09;;;3.90;91.96
51083;BME280;37131;42.694;23.350;2022-12-29T07:08:59;96491.47;;;4.19;91.71
51083;BME280;37131;42.694;23.350;2022-12-29T07:11:24;96501.56;;;4.04;90.60
51083;BME280;37131;42.694;23.350;2022-12-29T07:13:50;96486.75;;;4.15;91.30
51083;BME280;37131;42.694;23.350;2022-12-29T07:16:15;96493.13;;;3.76;91.51
51083;BME280;37131;42.694;23.350;2022-12-29T07:18:41;96494.44;;;4.07;92.21
51083;BME280;37131;42.694;23.350;2022-12-29T07:21:06;96490.03;;;4.25;90.99
51083;BME280;37131;42.694;23.350;2022-12-29T07:23:32;96486.72;;;4.07;92.04
51083;BME280;37131;42.694;23.350;2022-12-29T07:26:02;96488.09;;;4.53;91.83
51083;BME280;37131;42.694;23.350;2022-12-29T07:28:29;96479.97;;;4.91;88.75
51083;BME280;37131;42.694;23.350;2022-12-29T07:30:54;96472.81;;;4.77;87.76
51083;BME280;37131;42.694;23.350;2022-12-29T07:33:20;96485.53;;;5.29;85.04
51083;BME280;37131;42.694;23.350;2022-12-29T07:35:45;96482.78;;;5.47;84.05
51083;BME280;37131;42.694;23.350;2022-12-29T07:38:10;96480.34;;;5.62;83.83
51083;BME280;37131;42.694;23.350;2022-12-29T07:40:36;96482.63;;;5.65;83.63
51083;BME280;37131;42.694;23.350;2022-12-29T07:43:01;96486.19;;;5.80;80.57
51083;BME280;37131;42.694;23.350;2022-12-29T07:45:26;96482.56;;;6.23;78.56
51083;BME280;37131;42.694;23.350;2022-12-29T07:47:52;96483.09;;;6.02;80.66
51083;BME280;37131;42.694;23.350;2022-12-29T07:50:17;96441.03;;;5.91;80.55
51083;BME280;37131;42.694;23.350;2022-12-29T07:52:43;96471.47;;;5.97;80.59
51083;BME280;37131;42.694;23.350;2022-12-29T07:55:08;96486.78;;;6.24;79.52
51083;BME280;37131;42.694;23.350;2022-12-29T07:57:34;96492.81;;;6.08;80.26
51083;BME280;37131;42.694;23.350;2022-12-29T07:59:59;96490.25;;;5.83;80.40
51083;BME280;37131;42.694;23.350;2022-12-29T08:02:25;96493.13;;;5.88;81.39
51083;BME280;37131;42.694;23.350;2022-12-29T08:04:51;96493.94;;;6.13;80.75
51083;BME280;37131;42.694;23.350;2022-12-29T08:07:16;96494.00;;;6.45;77.73
51083;BME280;37131;42.694;23.350;2022-12-29T08:09:42;96497.44;;;6.85;75.30
51083;BME280;37131;42.694;23.350;2022-12-29T08:12:10;96438.19;;;6.34;75.00
51083;BME280;37131;42.694;23.350;2022-12-29T08:14:35;96489.59;;;6.62;77.40
51083;BME280;37131;42.694;23.350;2022-12-29T08:17:01;96493.59;;;6.73;77.66
51083;BME280;37131;42.694;23.350;2022-12-29T08:19:26;96484.00;;;6.34;78.63
51083;BME280;37131;42.694;23.350;2022-12-29T08:21:52;96485.03;;;6.16;79.45
51083;BME280;37131;42.694;23.350;2022-12-29T08:24:18;96421.25;;;6.23;78.05
51083;BME280;37131;42.694;23.350;2022-12-29T08:26:43;96460.81;;;6.80;77.38
51083;BME280;37131;42.694;23.350;2022-12-29T08:29:09;96485.19;;;6.62;76.84
51083;BME280;37131;42.694;23.350;2022-12-29T08:31:34;96410.38;;;6.59;76.16
51083;BME280;37131;42.694;23.350;2022-12-29T08:34:00;96463.66;;;6.93;76.13
51083;BME280;37131;42.694;23.350;2022-12-29T08:36:26;96485.53;;;6.99;74.97
51083;BME280;37131;42.694;23.350;2022-12-29T08:38:52;96485.72;;;7.20;74.69
51083;BME280;37131;42.694;23.350;2022-12-29T08:41:17;96487.16;;;7.46;73.87
51083;BME280;37131;42.694;23.350;2022-12-29T08:43:46;96421.91;;;7.34;72.56
51083;BME280;37131;42.694;23.350;2022-12-29T08:46:12;96431.34;;;7.04;72.34
51083;BME280;37131;42.694;23.350;2022-12-29T08:48:37;96478.16;;;7.11;74.14
51083;BME280;37131;42.694;23.350;2022-12-29T08:51:03;96486.72;;;7.43;72.79
51083;BME280;37131;42.694;23.350;2022-12-29T08:53:28;96474.34;;;7.22;74.32
51083;BME280;37131;42.694;23.350;2022-12-29T08:55:57;96475.38;;;7.59;74.15
51083;BME280;37131;42.694;23.350;2022-12-29T08:58:23;96422.63;;;7.81;71.88
51083;BME280;37131;42.694;23.350;2022-12-29T09:00:48;96459.91;;;8.03;72.28
51083;BME280;37131;42.694;23.350;2022-12-29T09:03:14;96462.16;;;8.21;71.32
51083;BME280;37131;42.694;23.350;2022-12-29T09:05:39;96464.47;;;8.01;71.58
51083;BME280;37131;42.694;23.350;2022-12-29T09:08:05;96459.19;;;7.95;70.92
51083;BME280;37131;42.694;23.350;2022-12-29T09:10:30;96449.16;;;7.92;71.44
51083;BME280;37131;42.694;23.350;2022-12-29T09:12:56;96460.09;;;8.02;70.85
51083;BME280;37131;42.694;23.350;2022-12-29T09:15:21;96399.16;;;7.75;71.30
51083;BME280;37131;42.694;23.350;2022-12-29T09:17:47;96457.84;;;7.99;71.31
51083;BME280;37131;42.694;23.350;2022-12-29T09:20:17;96376.38;;;7.09;72.20
51083;BME280;37131;42.694;23.350;2022-12-29T09:22:44;96449.41;;;7.97;72.12
51083;BME280;37131;42.694;23.350;2022-12-29T09:25:10;96377.19;;;7.47;71.81
51083;BME280;37131;42.694;23.350;2022-12-29T09:27:36;96357.41;;;7.46;72.12
51083;BME280;37131;42.694;23.350;2022-12-29T09:30:07;96447.53;;;8.20;70.95
51083;BME280;37131;42.694;23.350;2022-12-29T09:32:34;96357.44;;;7.76;70.83
51083;BME280;37131;42.694;23.350;2022-12-29T09:34:59;96446.63;;;8.28;71.97
51083;BME280;37131;42.694;23.350;2022-12-29T09:37:25;96442.09;;;8.00;71.55
51083;BME280;37131;42.694;23.350;2022-12-29T09:39:51;96442.81;;;7.56;73.56
51083;BME280;37131;42.694;23.350;2022-12-29T09:45:10;96436.00;;;8.23;72.28
51083;BME280;37131;42.694;23.350;2022-12-29T09:47:41;96419.97;;;8.34;72.25
51083;BME280;37131;42.694;23.350;2022-12-29T09:52:50;96376.97;;;8.17;70.89
51083;BME280;37131;42.694;23.350;2022-12-29T09:55:21;96420.13;;;8.03;72.46
51083;BME280;37131;42.694;23.350;2022-12-29T09:57:49;96415.81;;;8.25;72.33
51083;BME280;37131;42.694;23.350;2022-12-29T10:00:21;96414.66;;;8.57;69.69
51083;BME280;37131;42.694;23.350;2022-12-29T10:02:51;96407.13;;;8.84;68.74
51083;BME280;37131;42.694;23.350;2022-12-29T10:08:20;96399.72;;;9.03;68.70
51083;BME280;37131;42.694;23.350;2022-12-29T10:10:57;96397.25;;;8.73;69.85
51083;BME280;37131;42.694;23.350;2022-12-29T10:16:18;96341.81;;;8.51;70.28
51083;BME280;37131;42.694;23.350;2022-12-29T10:24:04;96384.13;;;9.03;70.36
51083;BME280;37131;42.694;23.350;2022-12-29T10:26:36;96381.53;;;9.03;70.36
51083;BME280;37131;42.694;23.350;2022-12-29T10:29:05;96384.69;;;9.20;69.81
51083;BME280;37131;42.694;23.350;2022-12-29T10:31:41;96384.25;;;9.38;69.44
51083;BME280;37131;42.694;23.350;2022-12-29T10:34:36;96381.44;;;9.39;69.17
51083;BME280;37131;42.694;23.350;2022-12-29T10:37:14;96379.34;;;9.56;68.73
51083;BME280;37131;42.694;23.350;2022-12-29T10:39:47;96371.13;;;9.81;67.65
51083;BME280;37131;42.694;23.350;2022-12-29T10:44:49;96353.81;;;10.08;66.14
51083;BME280;37131;42.694;23.350;2022-12-29T10:47:18;96362.34;;;9.89;67.29
51083;BME280;37131;42.694;23.350;2022-12-29T10:49:47;96354.78;;;10.00;66.67
51083;BME280;37131;42.694;23.350;2022-12-29T10:52:14;96351.41;;;10.07;66.21
51083;BME280;37131;42.694;23.350;2022-12-29T10:55:00;96355.28;;;10.17;65.25
51083;BME280;37131;42.694;23.350;2022-12-29T10:57:32;96261.22;;;9.57;65.17
51083;BME280;37131;42.694;23.350;2022-12-29T10:59:58;96277.59;;;9.51;65.94
51083;BME280;37131;42.694;23.350;2022-12-29T11:05:06;96332.94;;;9.32;68.30
51083;BME280;37131;42.694;23.350;2022-12-29T11:07:35;96338.34;;;9.08;68.63
51083;BME280;37131;42.694;23.350;2022-12-29T11:13:01;96334.88;;;8.80;70.98
51083;BME280;37131;42.694;23.350;2022-12-29T11:15:27;96330.31;;;8.60;70.93
51083;BME280;37131;42.694;23.350;2022-12-29T11:18:03;96331.41;;;8.72;70.49
51083;BME280;37131;42.694;23.350;2022-12-29T11:20:34;96330.47;;;9.02;70.12
51083;BME280;37131;42.694;23.350;2022-12-29T11:23:01;96323.75;;;9.36;67.40
51083;BME280;37131;42.694;23.350;2022-12-29T11:25:28;96330.44;;;8.95;69.11
51083;BME280;37131;42.694;23.350;2022-12-29T11:30:27;96324.88;;;9.55;68.12
51083;BME280;37131;42.694;23.350;2022-12-29T11:32:54;96314.44;;;9.48;66.72
51083;BME280;37131;42.694;23.350;2022-12-29T11:35:47;96313.47;;;9.56;66.96
51083;BME280;37131;42.694;23.350;2022-12-29T11:38:21;96314.47;;;9.55;67.04
51083;BME280;37131;42.694;23.350;2022-12-29T11:40:48;96305.59;;;9.77;67.05
51083;BME280;37131;42.694;23.350;2022-12-29T11:43:30;96311.97;;;9.40;66.99
51083;BME280;37131;42.694;23.350;2022-12-29T11:45:59;96303.13;;;9.69;66.98
51083;BME280;37131;42.694;23.350;2022-12-29T11:48:28;96306.38;;;9.43;67.32
51083;BME280;37131;42.694;23.350;2022-12-29T11:50:57;96304.63;;;9.50;67.84
51083;BME280;37131;42.694;23.350;2022-12-29T11:53:31;96301.44;;;9.96;66.25
51083;BME280;37131;42.694;23.350;2022-12-29T11:56:03;96305.91;;;10.03;66.13
51083;BME280;37131;42.694;23.350;2022-12-29T11:58:32;96300.81;;;10.36;65.31
51083;BME280;37131;42.694;23.350;2022-12-29T12:01:09;96311.38;;;10.21;65.15
51083;BME280;37131;42.694;23.350;2022-12-29T12:03:38;96307.78;;;10.29;64.53
51083;BME280;37131;42.694;23.350;2022-12-29T12:06:07;96298.88;;;10.51;64.51
51083;BME280;37131;42.694;23.350;2022-12-29T12:08:47;96296.63;;;10.42;65.09
51083;BME280;37131;42.694;23.350;2022-12-29T12:11:20;96294.38;;;10.32;65.04
51083;BME280;37131;42.694;23.350;2022-12-29T12:13:58;96291.69;;;10.60;64.36
51083;BME280;37131;42.694;23.350;2022-12-29T12:16:35;96295.28;;;10.73;63.03
51083;BME280;37131;42.694;23.350;2022-12-29T12:19:32;96291.69;;;10.87;63.08
51083;BME280;37131;42.694;23.350;2022-12-29T12:22:23;96290.28;;;10.71;63.95
51083;BME280;37131;42.694;23.350;2022-12-29T12:24:57;96285.75;;;10.31;65.06
51083;BME280;37131;42.694;23.350;2022-12-29T12:27:29;96281.22;;;10.67;64.89
51083;BME280;37131;42.694;23.350;2022-12-29T12:30:01;96268.81;;;10.76;64.14
51083;BME280;37131;42.694;23.350;2022-12-29T12:32:45;96268.41;;;10.92;63.72
51083;BME280;37131;42.694;23.350;2022-12-29T12:43:41;96268.78;;;10.49;65.78
51083;BME280;37131;42.694;23.350;2022-12-29T12:49:08;96265.19;;;11.30;62.21
51083;BME280;37131;42.694;23.350;2022-12-29T12:57:48;96266.16;;;12.15;58.47
51083;BME280;37131;42.694;23.350;2022-12-29T13:00:19;96248.47;;;12.10;58.11
51083;BME280;37131;42.694;23.350;2022-12-29T13:14:19;96264.00;;;10.99;62.15
51083;BME280;37131;42.694;23.350;2022-12-29T13:22:33;96276.63;;;10.69;64.23
51083;BME280;37131;42.694;23.350;2022-12-29T13:25:27;96272.84;;;10.78;64.11
51083;BME280;37131;42.694;23.350;2022-12-29T13:28:10;96279.66;;;10.79;63.42
51083;BME280;37131;42.694;23.350;2022-12-29T13:30:57;96279.44;;;9.57;67.59
51083;BME280;37131;42.694;23.350;2022-12-29T13:38:53;96280.56;;;9.83;69.29
51083;BME280;37131;42.694;23.350;2022-12-29T13:43:47;96233.63;;;9.00;70.29
51083;BME280;37131;42.694;23.350;2022-12-29T13:46:16;96274.84;;;9.24;71.52
51083;BME280;37131;42.694;23.350;2022-12-29T13:48:49;96279.28;;;9.65;69.58
51083;BME280;37131;42.694;23.350;2022-12-29T13:51:16;96271.50;;;9.72;69.42
51083;BME280;37131;42.694;23.350;2022-12-29T13:54:08;96278.38;;;9.87;69.09
51083;BME280;37131;42.694;23.350;2022-12-29T13:56:59;96268.66;;;10.09;68.88
51083;BME280;37131;42.694;23.350;2022-12-29T14:04:35;96283.41;;;10.43;66.99
51083;BME280;37131;42.694;23.350;2022-12-29T14:07:11;96287.03;;;10.49;67.08
51083;BME280;37131;42.694;23.350;2022-12-29T14:09:41;96281.88;;;10.14;67.20
51083;BME280;37131;42.694;23.350;2022-12-29T14:12:36;96282.75;;;10.28;66.24
51083;BME280;37131;42.694;23.350;2022-12-29T14:15:16;96293.03;;;9.94;69.06
51083;BME280;37131;42.694;23.350;2022-12-29T14:18:02;96294.00;;;9.87;69.48
51083;BME280;37131;42.694;23.350;2022-12-29T14:20:28;96292.63;;;9.91;69.10
51083;BME280;37131;42.694;23.350;2022-12-29T14:23:00;96237.53;;;9.52;68.58
51083;BME280;37131;42.694;23.350;2022-12-29T14:28:28;96300.44;;;9.91;68.91
51083;BME280;37131;42.694;23.350;2022-12-29T14:30:56;96262.56;;;9.46;69.27
51083;BME280;37131;42.694;23.350;2022-12-29T14:33:23;96305.69;;;9.62;70.06
51083;BME280;37131;42.694;23.350;2022-12-29T14:35:50;96306.00;;;9.46;71.07
51083;BME280;37131;42.694;23.350;2022-12-29T14:38:26;96314.13;;;9.64;70.81
51083;BME280;37131;42.694;23.350;2022-12-29T14:40:52;96304.16;;;9.75;69.31
51083;BME280;37131;42.694;23.350;2022-12-29T14:43:25;96307.00;;;9.80;68.97
51083;BME280;37131;42.694;23.350;2022-12-29T14:45:59;96300.94;;;9.73;68.84
51083;BME280;37131;42.694;23.350;2022-12-29T14:48:44;96298.53;;;9.71;68.70
51083;BME280;37131;42.694;23.350;2022-12-29T14:51:38;96304.16;;;9.75;68.64
51083;BME280;37131;42.694;23.350;2022-12-29T14:54:44;96308.09;;;9.64;68.85
51083;BME280;37131;42.694;23.350;2022-12-29T14:59:47;96309.50;;;9.60;69.36
51083;BME280;37131;42.694;23.350;2022-12-29T15:02:21;96304.25;;;9.53;69.86
51083;BME280;37131;42.694;23.350;2022-12-29T15:04:47;96308.06;;;9.57;69.92